地図

経路データ

SID SEASON NUMBER BASIN SUBBASIN NAME ISO_TIME NATURE LAT LON WMO_WIND WMO_PRES WMO_AGENCY TRACK_TYPE DIST2LAND LANDFALL IFLAG USA_AGENCY USA_ATCF_ID USA_LAT USA_LON USA_RECORD USA_STATUS USA_WIND USA_PRES USA_SSHS USA_R34_NE USA_R34_SE USA_R34_SW USA_R34_NW USA_R50_NE USA_R50_SE USA_R50_SW USA_R50_NW USA_R64_NE USA_R64_SE USA_R64_SW USA_R64_NW USA_POCI USA_ROCI USA_RMW USA_EYE TOKYO_LAT TOKYO_LON TOKYO_GRADE TOKYO_WIND TOKYO_PRES TOKYO_R50_DIR TOKYO_R50_LONG TOKYO_R50_SHORT TOKYO_R30_DIR TOKYO_R30_LONG TOKYO_R30_SHORT TOKYO_LAND CMA_LAT CMA_LON CMA_CAT CMA_WIND CMA_PRES HKO_LAT HKO_LON HKO_CAT HKO_WIND HKO_PRES NEWDELHI_LAT NEWDELHI_LON NEWDELHI_GRADE NEWDELHI_WIND NEWDELHI_PRES NEWDELHI_CI NEWDELHI_DP NEWDELHI_POCI REUNION_LAT REUNION_LON REUNION_TYPE REUNION_WIND REUNION_PRES REUNION_TNUM REUNION_CI REUNION_RMW REUNION_R34_NE REUNION_R34_SE REUNION_R34_SW REUNION_R34_NW REUNION_R50_NE REUNION_R50_SE REUNION_R50_SW REUNION_R50_NW REUNION_R64_NE REUNION_R64_SE REUNION_R64_SW REUNION_R64_NW BOM_LAT BOM_LON BOM_TYPE BOM_WIND BOM_PRES BOM_TNUM BOM_CI BOM_RMW BOM_R34_NE BOM_R34_SE BOM_R34_SW BOM_R34_NW BOM_R50_NE BOM_R50_SE BOM_R50_SW BOM_R50_NW BOM_R64_NE BOM_R64_SE BOM_R64_SW BOM_R64_NW BOM_ROCI BOM_POCI BOM_EYE BOM_POS_METHOD BOM_PRES_METHOD NADI_LAT NADI_LON NADI_CAT NADI_WIND NADI_PRES WELLINGTON_LAT WELLINGTON_LON WELLINGTON_WIND WELLINGTON_PRES DS824_LAT DS824_LON DS824_STAGE DS824_WIND DS824_PRES TD9636_LAT TD9636_LON TD9636_STAGE TD9636_WIND TD9636_PRES TD9635_LAT TD9635_LON TD9635_WIND TD9635_PRES TD9635_ROCI NEUMANN_LAT NEUMANN_LON NEUMANN_CLASS NEUMANN_WIND NEUMANN_PRES MLC_LAT MLC_LON MLC_CLASS MLC_WIND MLC_PRES USA_GUST BOM_GUST BOM_GUST_PER REUNION_GUST REUNION_GUST_PER USA_SEAHGT USA_SEARAD_NE USA_SEARAD_SE USA_SEARAD_SW USA_SEARAD_NW STORM_SPEED STORM_DIR
1995235N13311 1995 52 NA NA IRIS 1995-08-22 12:00:00 TS 13.2000 -49.3000 30 1008 hurdat_atl main 964 940 O_____________ hurdat_atl AL101995 13.2000 -49.3000 TD 30 1008 -1 13 272
1995235N13311 1995 52 NA NA IRIS 1995-08-22 15:00:00 TS 13.2177 -49.9477 main 940 918 P_____________ AL101995 13.2177 -49.9477 TD 32 1007 -1 13 275
1995235N13311 1995 52 NA NA IRIS 1995-08-22 18:00:00 TS 13.3000 -50.6000 35 1007 hurdat_atl main 918 906 O_____________ hurdat_atl AL101995 13.3000 -50.6000 TS 35 1007 0 13 282
1995235N13311 1995 52 NA NA IRIS 1995-08-22 21:00:00 TS 13.4850 -51.2448 main 912 904 P_____________ AL101995 13.4850 -51.2448 TS 35 1006 0 12 289
1995235N13311 1995 52 NA NA IRIS 1995-08-23 00:00:00 TS 13.7000 -51.8000 35 1006 hurdat_atl main 912 909 O_____________ hurdat_atl AL101995 13.7000 -51.8000 TS 35 1006 0 10 291
1995235N13311 1995 52 NA NA IRIS 1995-08-23 03:00:00 TS 13.8423 -52.2027 main 911 911 P_____________ AL101995 13.8423 -52.2027 TS 37 1005 0 7 294
1995235N13311 1995 52 NA NA IRIS 1995-08-23 06:00:00 TS 14.0000 -52.5000 40 1004 hurdat_atl main 926 924 O_____________ hurdat_atl AL101995 14.0000 -52.5000 TS 40 1004 0 7 305
1995235N13311 1995 52 NA NA IRIS 1995-08-23 09:00:00 TS 14.2349 -52.7725 main 942 942 P_____________ AL101995 14.2349 -52.7725 TS 47 1001 0 7 316
1995235N13311 1995 52 NA NA IRIS 1995-08-23 12:00:00 TS 14.5000 -53.0000 55 998 hurdat_atl main 967 957 O_____________ hurdat_atl AL101995 14.5000 -53.0000 TS 55 998 0 7 322
1995235N13311 1995 52 NA NA IRIS 1995-08-23 15:00:00 TS 14.7725 -53.2075 main 962 953 P_____________ AL101995 14.7725 -53.2075 TS 65 994 1 6 322
1995235N13311 1995 52 NA NA IRIS 1995-08-23 18:00:00 TS 15.0000 -53.4000 75 991 hurdat_atl main 954 941 O_____________ hurdat_atl AL101995 15.0000 -53.4000 HU 75 991 1 5 316
1995235N13311 1995 52 NA NA IRIS 1995-08-23 21:00:00 TS 15.1525 -53.5925 main 947 928 P_____________ AL101995 15.1525 -53.5925 HU 72 991 1 4 297
1995235N13311 1995 52 NA NA IRIS 1995-08-24 00:00:00 TS 15.2000 -53.8000 70 992 hurdat_atl main 928 904 O_____________ hurdat_atl AL101995 15.2000 -53.8000 HU 70 992 1 4 267
1995235N13311 1995 52 NA NA IRIS 1995-08-24 03:00:00 TS 15.1299 -54.0200 main 904 871 P_____________ AL101995 15.1299 -54.0200 HU 70 992 1 5 248
1995235N13311 1995 52 NA NA IRIS 1995-08-24 06:00:00 TS 15.0000 -54.3000 70 992 hurdat_atl main 871 838 O_____________ hurdat_atl AL101995 15.0000 -54.3000 HU 70 992 1 7 250
1995235N13311 1995 52 NA NA IRIS 1995-08-24 09:00:00 TS 14.9000 -54.6700 main 829 787 P_____________ AL101995 14.9000 -54.6700 HU 67 992 1 8 256
1995235N13311 1995 52 NA NA IRIS 1995-08-24 12:00:00 TS 14.8000 -55.1000 65 992 hurdat_atl main 787 746 O_____________ hurdat_atl AL101995 14.8000 -55.1000 HU 65 992 1 9 256
1995235N13311 1995 52 NA NA IRIS 1995-08-24 15:00:00 TS 14.6925 -55.5500 main 737 696 P_____________ AL101995 14.6925 -55.5500 HU 62 992 0 9 257
1995235N13311 1995 52 NA NA IRIS 1995-08-24 18:00:00 TS 14.6000 -56.0000 60 992 hurdat_atl main 696 663 O_____________ hurdat_atl AL101995 14.6000 -56.0000 TS 60 992 0 8 260
1995235N13311 1995 52 NA NA IRIS 1995-08-24 21:00:00 TS 14.5498 -56.3924 main 656 623 P_____________ AL101995 14.5498 -56.3924 TS 57 993 0 8 263
1995235N13311 1995 52 NA NA IRIS 1995-08-25 00:00:00 TS 14.5000 -56.8000 55 995 hurdat_atl main 623 577 O_____________ hurdat_atl AL101995 14.5000 -56.8000 TS 55 995 0 9 260
1995235N13311 1995 52 NA NA IRIS 1995-08-25 03:00:00 TS 14.4000 -57.2851 main 577 532 P_____________ AL101995 14.4000 -57.2851 TS 55 995 0 10 258
1995235N13311 1995 52 NA NA IRIS 1995-08-25 06:00:00 TS 14.3000 -57.8000 55 996 hurdat_atl main 532 489 O_____________ hurdat_atl AL101995 14.3000 -57.8000 TS 55 996 0 10 260
1995235N13311 1995 52 NA NA IRIS 1995-08-25 09:00:00 TS 14.2349 -58.3000 main 489 459 P_____________ AL101995 14.2349 -58.3000 TS 55 997 0 10 264
1995235N13311 1995 52 NA NA IRIS 1995-08-25 12:00:00 TS 14.2000 -58.8000 55 999 hurdat_atl main 459 433 O_____________ hurdat_atl AL101995 14.2000 -58.8000 TS 55 999 0 10 268
1995235N13311 1995 52 NA NA IRIS 1995-08-25 15:00:00 TS 14.2076 -59.3374 main 433 413 P_____________ AL101995 14.2076 -59.3374 TS 52 998 0 10 270
1995235N13311 1995 52 NA CS IRIS 1995-08-25 18:00:00 TS 14.2000 -59.8000 50 998 hurdat_atl main 413 393 O_____________ hurdat_atl AL101995 14.2000 -59.8000 TS 50 998 0 8 261
1995235N13311 1995 52 NA CS IRIS 1995-08-25 21:00:00 TS 14.0849 -60.1326 main 393 377 P_____________ AL101995 14.0849 -60.1326 TS 50 999 0 5 248
1995235N13311 1995 52 NA CS IRIS 1995-08-26 00:00:00 TS 14.0000 -60.3000 50 1000 hurdat_atl main 377 377 O_____________ hurdat_atl AL101995 14.0000 -60.3000 TS 50 1000 0 1 257
1995235N13311 1995 52 NA CS IRIS 1995-08-26 03:00:00 TS 14.0550 -60.2650 main 388 388 P_____________ AL101995 14.0550 -60.2650 TS 47 999 0 2 27
1995235N13311 1995 52 NA CS IRIS 1995-08-26 06:00:00 TS 14.2000 -60.2000 45 999 hurdat_atl main 401 401 O_____________ hurdat_atl AL101995 14.2000 -60.2000 TS 45 999 0 3 353
1995235N13311 1995 52 NA CS IRIS 1995-08-26 09:00:00 TS 14.3925 -60.3050 main 421 421 P_____________ AL101995 14.3925 -60.3050 TS 45 999 0 5 324
1995235N13311 1995 52 NA CS IRIS 1995-08-26 12:00:00 TS 14.6000 -60.5000 45 1000 hurdat_atl main 440 438 O_____________ hurdat_atl AL101995 14.6000 -60.5000 TS 45 1000 0 6 311
1995235N13311 1995 52 NA CS IRIS 1995-08-26 15:00:00 TS 14.7726 -60.7574 main 459 459 P_____________ AL101995 14.7726 -60.7574 TS 42 1001 0 6 302
1995235N13311 1995 52 NA CS IRIS 1995-08-26 18:00:00 TS 14.9000 -61.0000 40 1003 hurdat_atl main 470 470 O_____________ hurdat_atl AL101995 14.9000 -61.0000 TS 40 1003 0 4 293
1995235N13311 1995 52 NA CS IRIS 1995-08-26 21:00:00 TS 14.9275 -61.1376 main 470 470 P_____________ AL101995 14.9275 -61.1376 TS 37 1004 0 2 297
1995235N13311 1995 52 NA CS IRIS 1995-08-27 00:00:00 TS 15.0000 -61.2000 35 1006 hurdat_atl main 481 481 O_____________ hurdat_atl AL101995 15.0000 -61.2000 TS 35 1006 0 3 346
1995235N13311 1995 52 NA CS IRIS 1995-08-27 03:00:00 TS 15.2625 -61.2150 main 515 515 P_____________ AL101995 15.2625 -61.2150 TS 37 1005 0 6 1
1995235N13311 1995 52 NA CS IRIS 1995-08-27 06:00:00 TS 15.6000 -61.2000 40 1005 hurdat_atl main 548 539 O_____________ hurdat_atl AL101995 15.6000 -61.2000 TS 40 1005 0 6 6
1995235N13311 1995 52 NA CS IRIS 1995-08-27 09:00:00 TS 15.8849 -61.1478 main 543 518 P_____________ AL101995 15.8849 -61.1478 TS 42 1003 0 6 1
1995235N13311 1995 52 NA CS IRIS 1995-08-27 12:00:00 TS 16.2000 -61.2000 45 1002 hurdat_atl main 518 470 O_____________ hurdat_atl AL101995 16.2000 -61.2000 TS 45 1002 0 8 331
1995235N13311 1995 52 NA CS IRIS 1995-08-27 15:00:00 TS 16.5823 -61.5461 main 470 414 P_____________ AL101995 16.5823 -61.5461 TS 47 998 0 10 320
1995235N13311 1995 52 NA CS IRIS 1995-08-27 18:00:00 TS 17.0000 -61.9000 50 995 hurdat_atl main 414 391 O_____________ hurdat_atl AL101995 17.0000 -61.9000 L TS 50 995 0 10 334
1995235N13311 1995 52 NA CS IRIS 1995-08-27 21:00:00 TS 17.4468 -61.9956 main 391 384 P_____________ AL101995 17.4468 -61.9956 TS 52 993 0 9 352
1995235N13311 1995 52 NA CS IRIS 1995-08-27 23:00:00 TS 17.7000 -62.0000 55 993 hurdat_atl main 384 383 O_____________ hurdat_atl AL101995 17.7000 -62.0000 L TS 55 993 0 7 356
1995235N13311 1995 52 NA CS IRIS 1995-08-28 00:00:00 TS 17.8000 -62.0000 55 993 hurdat_atl main 383 380 O_____________ hurdat_atl AL101995 17.8000 -62.0000 TS 55 993 0 7 1
1995235N13311 1995 52 NA CS IRIS 1995-08-28 03:00:00 TS 18.1730 -61.9940 main 380 379 P_____________ AL101995 18.1730 -61.9940 TS 55 991 0 8 1
1995235N13311 1995 52 NA NA IRIS 1995-08-28 06:00:00 TS 18.6000 -62.0000 55 989 hurdat_atl main 380 380 O_____________ hurdat_atl AL101995 18.6000 -62.0000 TS 55 989 0 8 357
1995235N13311 1995 52 NA NA IRIS 1995-08-28 09:00:00 TS 18.9850 -62.0276 main 385 379 P_____________ AL101995 18.9850 -62.0276 TS 57 987 0 8 353
1995235N13311 1995 52 NA NA IRIS 1995-08-28 12:00:00 TS 19.4000 -62.1000 60 985 hurdat_atl main 384 381 O_____________ hurdat_atl AL101995 19.4000 -62.1000 TS 60 985 0 9 347
1995235N13311 1995 52 NA NA IRIS 1995-08-28 15:00:00 TS 19.8925 -62.2498 main 394 385 P_____________ AL101995 19.8925 -62.2498 TS 62 984 0 10 344
1995235N13311 1995 52 NA NA IRIS 1995-08-28 18:00:00 TS 20.4000 -62.4000 65 983 hurdat_atl main 403 403 O_____________ hurdat_atl AL101995 20.4000 -62.4000 HU 65 983 1 10 348
1995235N13311 1995 52 NA NA IRIS 1995-08-28 21:00:00 TS 20.8725 -62.4726 main 428 428 P_____________ AL101995 20.8725 -62.4726 HU 67 982 1 9 354
1995235N13311 1995 52 NA NA IRIS 1995-08-29 00:00:00 TS 21.3000 -62.5000 70 981 hurdat_atl main 458 458 O_____________ hurdat_atl AL101995 21.3000 -62.5000 HU 70 981 1 8 357
1995235N13311 1995 52 NA NA IRIS 1995-08-29 03:00:00 TS 21.6725 -62.5076 main 490 490 P_____________ AL101995 21.6725 -62.5076 HU 75 977 1 7 0
1995235N13311 1995 52 NA NA IRIS 1995-08-29 06:00:00 TS 22.0000 -62.5000 80 974 hurdat_atl main 516 516 O_____________ hurdat_atl AL101995 22.0000 -62.5000 HU 80 974 1 6 358
1995235N13311 1995 52 NA NA IRIS 1995-08-29 09:00:00 TS 22.3150 -62.5149 main 542 542 P_____________ AL101995 22.3150 -62.5149 HU 77 973 1 6 1
1995235N13311 1995 52 NA NA IRIS 1995-08-29 12:00:00 TS 22.6000 -62.5000 75 973 hurdat_atl main 569 569 O_____________ hurdat_atl AL101995 22.6000 -62.5000 HU 75 973 1 6 9
1995235N13311 1995 52 NA NA IRIS 1995-08-29 15:00:00 TS 22.8575 -62.4150 main 603 603 P_____________ AL101995 22.8575 -62.4150 HU 72 974 1 5 20
1995235N13311 1995 52 NA NA IRIS 1995-08-29 18:00:00 TS 23.1000 -62.3000 70 975 hurdat_atl main 627 627 O_____________ hurdat_atl AL101995 23.1000 -62.3000 HU 70 975 1 6 20
1995235N13311 1995 52 NA NA IRIS 1995-08-29 21:00:00 TS 23.3725 -62.2075 main 661 661 P_____________ AL101995 23.3725 -62.2075 HU 70 975 1 5 20
1995235N13311 1995 52 NA NA IRIS 1995-08-30 00:00:00 TS 23.6000 -62.1000 70 976 hurdat_atl main 685 685 O_____________ hurdat_atl AL101995 23.6000 -62.1000 HU 70 976 1 4 32
1995235N13311 1995 52 NA NA IRIS 1995-08-30 03:00:00 TS 23.7225 -61.9649 main 700 700 P_____________ AL101995 23.7225 -61.9649 HU 70 976 1 3 54
1995235N13311 1995 52 NA NA IRIS 1995-08-30 06:00:00 TS 23.8000 -61.8000 70 977 hurdat_atl main 720 720 O_____________ hurdat_atl AL101995 23.8000 -61.8000 HU 70 977 1 4 61
1995235N13311 1995 52 NA NA IRIS 1995-08-30 09:00:00 TS 23.8999 -61.6225 main 741 741 P_____________ AL101995 23.8999 -61.6225 HU 72 974 1 4 61
1995235N13311 1995 52 NA NA IRIS 1995-08-30 12:00:00 TS 24.0000 -61.4000 75 972 hurdat_atl main 762 762 O_____________ hurdat_atl AL101995 24.0000 -61.4000 HU 75 972 1 5 67
1995235N13311 1995 52 NA NA IRIS 1995-08-30 15:00:00 TS 24.0925 -61.1224 main 789 789 P_____________ AL101995 24.0925 -61.1224 HU 75 971 1 6 70
1995235N13311 1995 52 NA NA IRIS 1995-08-30 18:00:00 TS 24.2000 -60.8000 75 971 hurdat_atl main 816 816 O_____________ hurdat_atl AL101995 24.2000 -60.8000 HU 75 971 1 7 67
1995235N13311 1995 52 NA NA IRIS 1995-08-30 21:00:00 TS 24.3501 -60.4426 main 859 859 P_____________ AL101995 24.3501 -60.4426 HU 75 971 1 7 65
1995235N13311 1995 52 NA NA IRIS 1995-08-31 00:00:00 TS 24.5000 -60.1000 75 971 hurdat_atl main 888 888 O_____________ hurdat_atl AL101995 24.5000 -60.1000 HU 75 971 1 6 65
1995235N13311 1995 52 NA NA IRIS 1995-08-31 03:00:00 TS 24.6074 -59.8349 main 916 916 P_____________ AL101995 24.6074 -59.8349 HU 75 971 1 5 66
1995235N13311 1995 52 NA NA IRIS 1995-08-31 06:00:00 TS 24.7000 -59.6000 75 971 hurdat_atl main 938 938 O_____________ hurdat_atl AL101995 24.7000 -59.6000 HU 75 971 1 5 67
1995235N13311 1995 52 NA NA IRIS 1995-08-31 09:00:00 TS 24.8075 -59.3275 main 967 967 P_____________ AL101995 24.8075 -59.3275 HU 75 971 1 5 66
1995235N13311 1995 52 NA NA IRIS 1995-08-31 12:00:00 TS 24.9000 -59.1000 75 971 hurdat_atl main 989 989 O_____________ hurdat_atl AL101995 24.9000 -59.1000 HU 75 971 1 4 66
1995235N13311 1995 52 NA NA IRIS 1995-08-31 15:00:00 TS 24.9499 -58.9699 main 996 996 P_____________ AL101995 24.9499 -58.9699 HU 80 969 1 2 61
1995235N13311 1995 52 NA NA IRIS 1995-08-31 18:00:00 TS 25.0000 -58.9000 85 968 hurdat_atl main 1011 1011 O_____________ hurdat_atl AL101995 25.0000 -58.9000 HU 85 968 2 2 43
1995235N13311 1995 52 NA NA IRIS 1995-08-31 21:00:00 TS 25.0850 -58.8350 main 1026 1026 P_____________ AL101995 25.0850 -58.8350 HU 87 967 2 2 25
1995235N13311 1995 52 NA NA IRIS 1995-09-01 00:00:00 TS 25.2000 -58.8000 90 967 hurdat_atl main 1034 1034 O_____________ hurdat_atl AL101995 25.2000 -58.8000 HU 90 967 2 3 10
1995235N13311 1995 52 NA NA IRIS 1995-09-01 03:00:00 TS 25.3575 -58.7775 main 1050 1050 P_____________ AL101995 25.3575 -58.7775 HU 92 966 2 3 0
1995235N13311 1995 52 NA NA IRIS 1995-09-01 06:00:00 TS 25.5000 -58.8000 95 965 hurdat_atl main 1058 1058 O_____________ hurdat_atl AL101995 25.5000 -58.8000 HU 95 965 2 2 343
1995235N13311 1995 52 NA NA IRIS 1995-09-01 09:00:00 TS 25.5649 -58.8475 main 1066 1053 P_____________ AL101995 25.5649 -58.8475 HU 92 966 2 2 299
1995235N13311 1995 52 NA NA IRIS 1995-09-01 12:00:00 TS 25.6000 -59.0000 90 967 hurdat_atl main 1053 1033 O_____________ hurdat_atl AL101995 25.6000 -59.0000 HU 90 967 2 4 279
1995235N13311 1995 52 NA NA IRIS 1995-09-01 15:00:00 TS 25.6352 -59.3276 main 1033 1017 P_____________ AL101995 25.6352 -59.3276 HU 87 968 2 6 279
1995235N13311 1995 52 NA NA IRIS 1995-09-01 18:00:00 TS 25.7000 -59.7000 85 969 hurdat_atl main 1017 1005 O_____________ hurdat_atl AL101995 25.7000 -59.7000 HU 85 969 2 6 286
1995235N13311 1995 52 NA NA IRIS 1995-09-01 21:00:00 TS 25.8125 -60.0024 main 1008 1002 P_____________ AL101995 25.8125 -60.0024 HU 85 970 2 5 304
1995235N13311 1995 52 NA NA IRIS 1995-09-02 00:00:00 TS 26.0000 -60.2000 85 971 hurdat_atl main 1014 1014 O_____________ hurdat_atl AL101995 26.0000 -60.2000 HU 85 971 2 5 331
1995235N13311 1995 52 NA NA IRIS 1995-09-02 03:00:00 TS 26.2324 -60.2599 main 1027 1027 P_____________ AL101995 26.2324 -60.2599 HU 85 972 2 6 1
1995235N13311 1995 52 NA NA IRIS 1995-09-02 06:00:00 TS 26.6000 -60.2000 85 973 hurdat_atl main 1070 1070 O_____________ hurdat_atl AL101995 26.6000 -60.2000 HU 85 973 2 9 11
1995235N13311 1995 52 NA NA IRIS 1995-09-02 09:00:00 TS 27.1476 -60.0653 main 1123 1123 P_____________ AL101995 27.1476 -60.0653 HU 82 975 1 12 13
1995235N13311 1995 52 NA NA IRIS 1995-09-02 12:00:00 TS 27.8000 -59.9000 80 978 hurdat_atl main 1200 1200 O_____________ hurdat_atl AL101995 27.8000 -59.9000 HU 80 978 1 13 10
1995235N13311 1995 52 NA NA IRIS 1995-09-02 15:00:00 TS 28.3749 -59.8285 main 1264 1264 P_____________ AL101995 28.3749 -59.8285 HU 77 980 1 13 8
1995235N13311 1995 52 NA NA IRIS 1995-09-02 18:00:00 TS 29.1000 -59.7000 75 983 hurdat_atl main 1337 1337 O_____________ hurdat_atl AL101995 29.1000 -59.7000 HU 75 983 1 18 13
1995235N13311 1995 52 NA NA IRIS 1995-09-02 21:00:00 TS 30.0805 -59.3661 main 1449 1449 P_____________ AL101995 30.0805 -59.3661 HU 75 982 1 23 15
1995235N13311 1995 52 NA NA IRIS 1995-09-03 00:00:00 TS 31.3000 -59.0000 75 982 hurdat_atl main 1466 1338 O_____________ hurdat_atl AL101995 31.3000 -59.0000 HU 75 982 1 27 10
1995235N13311 1995 52 NA NA IRIS 1995-09-03 03:00:00 TS 32.7120 -58.8263 main 1328 1194 P_____________ AL101995 32.7120 -58.8263 HU 75 982 1 29 7
1995235N13311 1995 52 NA NA IRIS 1995-09-03 06:00:00 TS 34.2000 -58.6000 75 982 hurdat_atl main 1185 1076 O_____________ hurdat_atl AL101995 34.2000 -58.6000 HU 75 982 1 29 11
1995235N13311 1995 52 NA NA IRIS 1995-09-03 09:00:00 TS 35.5940 -58.1680 main 1067 979 P_____________ AL101995 35.5940 -58.1680 HU 75 982 1 29 18
1995235N13311 1995 52 NA NA IRIS 1995-09-03 12:00:00 TS 36.9000 -57.5000 75 982 hurdat_atl main 970 869 O_____________ hurdat_atl AL101995 36.9000 -57.5000 HU 75 982 1 28 26
1995235N13311 1995 52 NA NA IRIS 1995-09-03 15:00:00 TS 38.1153 -56.6544 main 869 814 P_____________ AL101995 38.1153 -56.6544 HU 72 983 1 28 34
1995235N13311 1995 52 NA NA IRIS 1995-09-03 18:00:00 TS 39.2000 -55.5000 70 985 hurdat_atl main 809 723 O_____________ hurdat_atl AL101995 39.2000 -55.5000 HU 70 985 1 29 46
1995235N13311 1995 52 NA NA IRIS 1995-09-03 21:00:00 TS 40.1170 -53.9641 main 723 636 P_____________ AL101995 40.1170 -53.9641 HU 67 986 1 30 54
1995235N13311 1995 52 NA NA IRIS 1995-09-04 00:00:00 TS 41.0000 -52.3000 65 987 hurdat_atl main 626 542 O_____________ hurdat_atl AL101995 41.0000 -52.3000 HU 65 987 1 30 51
1995235N13311 1995 52 NA NA IRIS 1995-09-04 03:00:00 TS 42.0384 -50.8600 main 542 489 P_____________ AL101995 42.0384 -50.8600 HU 62 988 0 30 46
1995235N13311 1995 52 NA NA IRIS 1995-09-04 06:00:00 TS 43.1000 -49.4000 60 990 hurdat_atl main 490 484 O_____________ hurdat_atl AL101995 43.1000 -49.4000 TS 60 990 0 30 48
1995235N13311 1995 52 NA NA IRIS 1995-09-04 09:00:00 TS 44.0471 -47.7737 main 509 508 P_____________ AL101995 44.0471 -47.7737 TS 60 992 0 31 52
1995235N13311 1995 52 NA NA IRIS 1995-09-04 12:00:00 ET 45.0000 -46.0000 60 995 hurdat_atl main 575 575 O_____________ hurdat_atl AL101995 45.0000 -46.0000 EX 60 995 -4 32 51
1995235N13311 1995 52 NA NA IRIS 1995-09-04 15:00:00 ET 46.0609 -44.2082 main 655 655 P_____________ AL101995 46.0609 -44.2082 EX 57 996 -4 35 53
1995235N13311 1995 52 NA NA IRIS 1995-09-04 18:00:00 ET 47.1000 -42.0000 55 997 hurdat_atl main 796 796 O_____________ hurdat_atl AL101995 47.1000 -42.0000 EX 55 997 -4 40 60
1995235N13311 1995 52 NA NA IRIS 1995-09-04 21:00:00 ET 48.0373 -39.1284 main 1005 1005 P_____________ AL101995 48.0373 -39.1284 EX 52 998 -4 45 69
1995235N13311 1995 52 NA NA IRIS 1995-09-05 00:00:00 ET 48.7000 -35.7000 50 999 hurdat_atl main 1253 1253 O_____________ hurdat_atl AL101995 48.7000 -35.7000 EX 50 999 -4 50 79
1995235N13311 1995 52 NA NA IRIS 1995-09-05 03:00:00 ET 48.9644 -31.6474 main 1429 1298 P_____________ AL101995 48.9644 -31.6474 EX 50 998 -4 50 88
1995235N13311 1995 52 NA NA IRIS 1995-09-05 06:00:00 ET 48.9000 -28.1000 50 998 hurdat_atl main 1284 1169 O_____________ hurdat_atl AL101995 48.9000 -28.1000 EX 50 998 -4 35 93
1995235N13311 1995 52 NA NA IRIS 1995-09-05 09:00:00 ET 48.7486 -26.2409 main 1166 1097 P_____________ AL101995 48.7486 -26.2409 EX 50 992 -4 21 98
1995235N13311 1995 52 NA NA IRIS 1995-09-05 12:00:00 ET 48.6000 -25.0000 50 987 hurdat_atl main 1091 990 O_____________ hurdat_atl AL101995 48.6000 -25.0000 EX 50 987 -4 20 96
1995235N13311 1995 52 NA NA IRIS 1995-09-05 15:00:00 ET 48.5412 -23.2823 main 983 873 P_____________ AL101995 48.5412 -23.2823 EX 52 983 -4 23 92
1995235N13311 1995 52 NA NA IRIS 1995-09-05 18:00:00 ET 48.5000 -21.5000 55 979 hurdat_atl main 866 771 O_____________ hurdat_atl AL101995 48.5000 -21.5000 EX 55 979 -4 23 93
1995235N13311 1995 52 NA NA IRIS 1995-09-05 21:00:00 ET 48.4113 -19.7733 main 765 670 P_____________ AL101995 48.4113 -19.7733 EX 55 975 -4 23 95
1995235N13311 1995 52 NA NA IRIS 1995-09-06 00:00:00 ET 48.3000 -18.0000 55 972 hurdat_atl main 664 569 O_____________ hurdat_atl AL101995 48.3000 -18.0000 EX 55 972 -4 25 96
1995235N13311 1995 52 NA NA IRIS 1995-09-06 03:00:00 ET 48.1395 -15.9551 main 567 495 P_____________ AL101995 48.1395 -15.9551 EX 57 969 -4 25 97
1995235N13311 1995 52 NA NA IRIS 1995-09-06 06:00:00 ET 48.0000 -14.2000 60 967 hurdat_atl main 491 452 O_____________ hurdat_atl AL101995 48.0000 -14.2000 EX 60 967 -4 18 96
1995235N13311 1995 52 NA NA IRIS 1995-09-06 09:00:00 ET 47.9570 -13.2293 main 448 427 P_____________ AL101995 47.9570 -13.2293 EX 60 965 -4 11 90
1995235N13311 1995 52 NA NA IRIS 1995-09-06 12:00:00 ET 48.0000 -12.6000 60 963 hurdat_atl main 427 398 O_____________ hurdat_atl AL101995 48.0000 -12.6000 EX 60 963 -4 9 82
1995235N13311 1995 52 NA NA IRIS 1995-09-06 15:00:00 ET 48.0828 -11.9099 main 395 368 P_____________ AL101995 48.0828 -11.9099 EX 62 961 -4 10 79
1995235N13311 1995 52 NA NA IRIS 1995-09-06 18:00:00 ET 48.2000 -11.1000 65 960 hurdat_atl main 367 344 O_____________ hurdat_atl AL101995 48.2000 -11.1000 EX 65 960 -4 13 82
1995235N13311 1995 52 NA NA IRIS 1995-09-06 21:00:00 ET 48.2794 -9.92133 main 344 292 P_____________ AL101995 48.2794 -9.92133 EX 65 958 -4 16 83
1995235N13311 1995 52 NA NA IRIS 1995-09-07 00:00:00 ET 48.4000 -8.70000 65 957 hurdat_atl main 286 227 O_____________ hurdat_atl AL101995 48.4000 -8.70000 EX 65 957 -4 14 76
1995235N13311 1995 52 NA NA IRIS 1995-09-07 03:00:00 ET 48.6318 -7.80712 main 220 162 P_____________ AL101995 48.6318 -7.80712 EX 65 959 -4 13 67
1995235N13311 1995 52 NA NA IRIS 1995-09-07 06:00:00 ET 48.9000 -6.90000 65 962 hurdat_atl main 158 98 O_____________ hurdat_atl AL101995 48.9000 -6.90000 EX 65 962 -4 14 70
1995235N13311 1995 52 NA NA IRIS 1995-09-07 09:00:00 ET 49.1222 -5.73672 main 93 72 P_____________ AL101995 49.1222 -5.73672 EX 62 965 -4 17 76
1995235N13311 1995 52 NA NA IRIS 1995-09-07 12:00:00 ET 49.3000 -4.40000 60 968 hurdat_atl main 77 O_____________ hurdat_atl AL101995 49.3000 -4.40000 EX 60 968 -4 18 78

IBTrACS Databaseについて

本データベースは、米国NOAAが公開する1842年以降の世界の熱帯低気圧のベストトラックデータアーカイブInternational Best Track Archive for Climate Stewardship (IBTrACS)を、ウェブで閲覧しやすい形式に変換したものです。

最終更新日:2021-12-08